NEODyS-2

Near Earth Objects - Dynamic Site
NEODyS ∴ Observatories ∴ Site 691 ∴ Obs & residuals
Contact »
691  ▹ 
OBSERVATIONS AND RESIDUALS

691-Steward Observatory, Kitt Peak-Spacewatch

Detections | Residuals | Detections & Residuals

[1-200] [201-400] [401-600] [601-800] [801-1000] [1001-1200] [1201-1400] [1401-1600] [1601-1800] [1801-2000] [2001-2200] [2201-2400] [2401-2600] [2601-2800] [2801-3000] [3001-3200] [3201-3400] [3401-3600] [3601-3800] [3801-4000] [4001-4200] [4201-4400] [4401-4600] [4601-4800] [4801-5000] [5001-5200] [5201-5400] [5401-5600] [5601-5800] [5801-6000] [6001-6200] [6201-6400] [6401-6600] [6601-6800] [6801-7000] [7001-7200] [7201-7400] [7401-7600] [7601-7800] [7801-8000] [8001-8200] [8201-8400] [8401-8600] [8601-8800] [8801-9000] [9001-9200] [9201-9400] [9401-9600] [9601-9800] [9801-10000] [10001-10200] [10201-10400] [10401-10600] [10601-10800] [10801-11000] [11001-11200] [11201-11400] [11401-11600] [11601-11800] [11801-12000] [12001-12200] [12201-12400] [12401-12600] [12601-12800] [12801-13000] [13001-13200] [13201-13400] [13401-13600] [13601-13800] [13801-14000] [14001-14200] [14201-14400] [14401-14600] [14601-14800] [14801-15000] [15001-15200] [15201-15400] [15401-15600] [15601-15800] [15801-16000] [16001-16200] [16201-16400] [16401-16600] [16601-16800] [16801-17000] [17001-17200] [17201-17400] [17401-17600] [17601-17800] [17801-18000] [18001-18200] [18201-18400] [18401-18600] [18601-18800] [18801-19000] [19001-19200] [19201-19400] [19401-19600] [19601-19800] [19801-20000] [20001-20200] [20201-20400] [20401-20600] [20601-20800] [20801-21000] [21001-21200] [21201-21400] [21401-21600] [21601-21800] [21801-22000] [22001-22200] [22201-22400] [22401-22600] [22601-22800] [22801-23000] [23001-23200] [23201-23400] [23401-23600] [23601-23800] [23801-24000] [24001-24200] [24201-24400] [24401-24600] [24601-24800] [24801-25000] [25001-25200] [25201-25400] [25401-25600] [25601-25800] [25801-26000] [26001-26200] [26201-26400] [26401-26600] [26601-26800] [26801-27000] [27001-27200] [27201-27400] [27401-27600] [27601-27800] [27801-28000] [28001-28200] [28201-28400] [28401-28600] [28601-28800] [28801-29000] [29001-29200] [29201-29400] [29401-29600] [29601-29800] [29801-30000] [30001-30200] [30201-30400] [30401-30600] [30601-30800] [30801-31000] [31001-31200] [31201-31400] [31401-31600] [31601-31800] [31801-32000] [32001-32200] [32201-32400] [32401-32600] [32601-32800] [32801-33000] [33001-33200] [33201-33400] [33401-33600] [33601-33800] [33801-34000] [34001-34200] [34201-34400] [34401-34600] [34601-34800] [34801-35000] [35001-35200] [35201-35400] [35401-35600] [35601-35800] [35801-36000] [36001-36200] [36201-36400] [36401-36600] [36601-36800] [36801-37000] [37001-37200] [37201-37400] [37401-37600] [37601-37800] [37801-38000] [38001-38200] [38201-38400] [38401-38600] [38601-38800] [38801-39000] [39001-39200] [39201-39400] [39401-39600] [39601-39800] [39801-40000] [40001-40200] [40201-40400] [40401-40600] [40601-40800] [40801-41000] [41001-41200] [41201-41400] [41401-41600] [41601-41800] [41801-42000] [42001-42200] [42201-42400] [42401-42600] [42601-42800] [42801-43000] [43001-43200] [43201-43400] [43401-43600] [43601-43800] [43801-44000] [44001-44200] [44201-44400] [44401-44600] [44601-44800] [44801-45000] [45001-45200] [45201-45400] [45401-45600] [45601-45800] [45801-46000] [46001-46200] [46201-46400] [46401-46600] [46601-46800] [46801-47000] [47001-47200] [47201-47400] [47401-47600] [47601-47800] [47801-48000] [48001-48200] [48201-48400] [48401-48600] [48601-48800] [48801-49000] [49001-49200] [49201-49400] [49401-49600] [49601-49800] [49801-50000] [50001-50200] [50201-50388]

Designation T Tech N Date Right Ascension Declination Apparent Magnitude Star Catalog Site code χ Used A Used M
yr-mo-day precision hr:min:sec precision rms F bias residual deg min sec precision rms F bias residual mag/col rms residual
2008AZ110 O C K 2017-05-02.46427 1.000E-05 21:24:47.010 1.500E-01 0.500 F -0.179 -0.100 -18° 06' 57.00" 1.000E-01 0.500 F 0.275 -0.090 19.8 R 0.70 -0.62 o 691 0.28 Yes Yes
2008AZ110 O C K 2017-05-02.46784 1.000E-05 21:24:47.520 1.500E-01 0.500 F -0.179 -0.122 -18° 06' 54.00" 1.000E-01 0.500 F 0.275 -0.074 20.2 R 0.70 -0.22 o 691 0.29 Yes Yes
2017HS O C K 2017-05-03.13310 1.000E-05 12:26:22.380 1.500E-01 0.500 F 0.170 -0.259 +11° 44' 51.30" 1.000E-01 0.500 F 0.328 0.032 o 691 0.53 Yes No
2001QH96 O C 2017-05-03.13310 1.000E-05 12:28:25.420 1.500E-01 0.500 F 0.111 -0.254 +12° 05' 56.60" 1.000E-01 0.500 F 0.277 -0.047 20.2 V 0.70 0.36 o 691 0.52 Yes Yes
2017HS O C K 2017-05-03.14746 1.000E-05 12:26:20.980 1.500E-01 0.500 F 0.170 0.009 +11° 45' 17.10" 1.000E-01 0.500 F 0.328 0.306 o 691 0.63 Yes No
2001QH96 O C 2017-05-03.14746 1.000E-05 12:28:24.680 1.500E-01 0.500 F 0.111 -0.209 +12° 06' 09.60" 1.000E-01 0.500 F 0.277 0.537 20.0 V 0.70 0.16 o 691 1.16 Yes Yes
2017HS O C K 2017-05-03.16003 1.000E-05 12:26:19.730 1.500E-01 0.500 F 0.170 -0.064 +11° 45' 39.20" 1.000E-01 0.500 F 0.328 0.088 o 691 0.22 Yes No
2001QH96 O C 2017-05-03.16183 1.000E-05 12:28:23.940 1.500E-01 0.500 F 0.111 -0.131 +12° 06' 21.50" 1.000E-01 0.500 F 0.277 0.033 20.2 V 0.70 0.36 o 691 0.27 Yes Yes
2017HX4 O C K 2017-05-03.18428 1.000E-05 13:54:27.280 1.500E-01 0.500 F 0.263 -0.223 -10° 22' 49.50" 1.000E-01 0.500 F 0.203 -0.354 19.1 R 0.70 -0.58 o 691 0.88 Yes Yes
2017HX4 O C K 2017-05-03.19610 1.000E-05 13:54:25.650 1.500E-01 0.500 F 0.283 -0.791 -10° 24' 42.30" 1.000E-01 0.500 F 0.150 -0.276 18.7 R 0.70 -0.97 o 691 1.75 Yes Yes
2017HX4 O C K 2017-05-03.20790 1.000E-05 13:54:24.070 1.500E-01 0.500 F 0.283 -0.018 -10° 26' 35.00" 1.000E-01 0.500 F 0.150 -0.036 18.9 R 0.70 -0.77 o 691 0.08 Yes Yes
2017FK128 O C K 2017-05-03.21827 1.000E-05 14:58:11.290 1.500E-01 0.500 F 0.360 -0.264 -11° 18' 11.50" 1.000E-01 0.500 F 0.204 -0.368 21.6 R 0.70 0.63 o 691 0.93 Yes Yes
2017FK128 O C K 2017-05-03.23128 1.000E-05 14:58:11.060 1.500E-01 0.500 F 0.360 0.524 -11° 18' 00.50" 1.000E-01 0.500 F 0.204 -0.408 o 691 1.36 Yes No
2017HJ49 O C K 2017-05-03.25055 1.000E-05 14:46:26.530 1.500E-01 0.500 F 0.240 0.114 -13° 35' 04.70" 1.000E-01 0.500 F 0.046 -0.041 o 691 0.25 Yes No
2017HJ49 O C K 2017-05-03.25743 1.000E-05 14:46:25.200 1.500E-01 0.500 F 0.240 0.434 -13° 35' 09.70" 1.000E-01 0.500 F 0.046 0.200 o 691 1.00 Yes No
2017JT1 O C K 2017-05-03.26442 1.000E-05 13:38:13.090 1.500E-01 0.500 F 0.191 0.080 +12° 23' 16.60" 1.000E-01 0.500 F 0.167 -0.317 o 691 0.69 Yes No
2017JT1 O C K 2017-05-03.26779 1.000E-05 13:38:13.720 1.500E-01 0.500 F 0.191 0.254 +12° 22' 42.90" 1.000E-01 0.500 F 0.167 0.027 o 691 0.54 Yes No
2017JT1 O C K 2017-05-03.27117 1.000E-05 13:38:14.330 1.500E-01 0.500 F 0.191 0.112 +12° 22' 08.50" 1.000E-01 0.500 F 0.167 -0.237 18.7 R 0.70 -0.30 o 691 0.55 Yes Yes
2017JU1 O C 2017-05-03.27879 1.000E-05 14:15:52.780 1.500E-01 0.500 F 0.151 -0.013 +15° 55' 37.70" 1.000E-01 0.500 F 0.250 -0.340 21.1 V 0.70 0.21 o 691 0.71 Yes Yes
2017JU1 O C 2017-05-03.28220 1.000E-05 14:15:53.320 1.500E-01 0.500 F 0.151 -0.395 +15° 55' 37.30" 1.000E-01 0.500 F 0.250 0.003 20.9 V 0.70 0.01 o 691 0.82 Yes Yes
2017JU1 O C 2017-05-03.28816 1.000E-05 14:15:54.310 1.500E-01 0.500 F 0.151 -0.396 +15° 55' 35.80" 1.000E-01 0.500 F 0.250 -0.166 21.4 V 0.70 0.51 o 691 0.89 Yes Yes
2017JR1 O C K 2017-05-03.30023 1.000E-05 14:51:10.480 1.500E-01 0.612 F 0.216 0.131 +01° 03' 23.40" 1.000E-01 0.612 F 0.109 0.088 o 691 0.26 Yes No
2017JR1 O C K 2017-05-03.30363 1.000E-05 14:51:11.140 1.500E-01 0.612 F 0.216 0.086 +01° 03' 53.20" 1.000E-01 0.612 F 0.109 0.227 19.1 R 0.70 -0.55 o 691 0.40 Yes Yes
2017JR1 O C K 2017-05-03.30704 1.000E-05 14:51:11.800 1.500E-01 0.612 F 0.216 0.010 +01° 04' 22.70" 1.000E-01 0.612 F 0.109 -0.034 19.2 R 0.70 -0.45 o 691 0.06 Yes Yes
2017JS1 O C K 2017-05-03.31045 1.000E-05 15:27:53.790 1.500E-01 0.500 F 0.214 -0.399 -09° 44' 15.70" 1.000E-01 0.500 F 0.121 0.227 18.2 R 0.70 -1.48 o 691 0.97 Yes Yes
2017GU6 O C 2017-05-03.31045 1.000E-05 15:26:06.680 1.500E-01 0.500 F 0.255 -0.390 -09° 56' 22.10" 1.000E-01 0.500 F 0.053 0.337 19.2 V 0.70 0.19 o 691 1.04 Yes Yes
2017JS1 O C K 2017-05-03.31486 1.000E-05 15:27:51.440 1.500E-01 0.500 F 0.214 -0.214 -09° 43' 25.20" 1.000E-01 0.500 F 0.121 0.078 18.6 R 0.70 -1.08 o 691 0.48 Yes Yes
2017GU6 O C 2017-05-03.31486 1.000E-05 15:26:06.680 1.500E-01 0.500 F 0.255 -0.299 -09° 56' 30.60" 1.000E-01 0.500 F 0.053 -0.043 18.9 V 0.70 -0.11 o 691 0.61 Yes Yes
2017JS1 O C K 2017-05-03.31927 1.000E-05 15:27:49.070 1.500E-01 0.500 F 0.214 -0.330 -09° 42' 34.30" 1.000E-01 0.500 F 0.121 0.338 18.4 R 0.70 -1.28 o 691 0.99 Yes Yes
2017GU6 O C 2017-05-03.31927 1.000E-05 15:26:06.670 1.500E-01 0.500 F 0.255 -0.353 -09° 56' 38.50" 1.000E-01 0.500 F 0.053 0.174 19.1 V 0.70 0.09 o 691 0.79 Yes Yes
2017JR1 O C K 2017-05-03.32403 1.000E-05 14:51:15.100 1.500E-01 0.612 F 0.216 -0.253 +01° 06' 51.10" 1.000E-01 0.612 F 0.109 -0.102 19.6 R 0.70 -0.05 o 691 0.45 Yes Yes
2017JR1 O C K 2017-05-03.32740 1.000E-05 14:51:15.770 1.500E-01 0.612 F 0.216 -0.091 +01° 07' 20.10" 1.000E-01 0.612 F 0.109 -0.587 18.9 R 0.70 -0.75 o 691 0.99 Yes Yes
2017JR1 O C K 2017-05-03.33078 1.000E-05 14:51:16.430 1.500E-01 0.612 F 0.216 -0.118 +01° 07' 50.40" 1.000E-01 0.612 F 0.109 0.127 19.1 R 0.70 -0.55 o 691 0.29 Yes Yes
2017JV1 O C K 2017-05-03.33489 1.000E-05 14:36:23.750 1.500E-01 0.500 F 0.046 -0.335 +17° 32' 18.00" 1.000E-01 0.500 F 0.249 0.213 19.5 R 0.70 -0.53 o 691 0.84 Yes Yes
2017JV1 O C K 2017-05-03.33747 1.000E-05 14:36:24.280 1.500E-01 0.500 F 0.046 0.176 +17° 32' 06.40" 1.000E-01 0.500 F 0.249 0.101 o 691 0.42 Yes No
2017JV1 O C K 2017-05-03.34004 1.000E-05 14:36:24.750 1.500E-01 0.500 F 0.046 -0.160 +17° 31' 54.90" 1.000E-01 0.500 F 0.249 0.071 19.4 R 0.70 -0.63 o 691 0.37 Yes Yes
2017HW48 O C K 2017-05-03.35201 1.000E-05 16:40:30.540 1.500E-01 0.500 F 0.040 -0.065 -09° 40' 13.40" 1.000E-01 0.500 F 0.138 -0.039 19.8 R 0.70 -0.10 o 691 0.15 Yes Yes
2017HW48 O C K 2017-05-03.36331 1.000E-05 16:40:31.190 1.500E-01 0.500 F 0.040 -0.090 -09° 40' 12.10" 1.000E-01 0.500 F 0.138 0.162 19.8 R 0.70 -0.10 o 691 0.37 Yes Yes
2017HW48 O C K 2017-05-03.37462 1.000E-05 16:40:31.840 1.500E-01 0.500 F 0.040 -0.110 -09° 40' 10.90" 1.000E-01 0.500 F 0.138 0.250 20.1 R 0.70 0.20 o 691 0.55 Yes Yes
2014SR339 O C K 2017-05-03.38084 1.000E-05 20:46:48.510 1.500E-01 0.500 F 0.039 0.271 +08° 30' 27.40" 1.000E-01 0.500 F 0.309 0.045 20.9 R 0.70 -0.58 o 691 0.55 Yes Yes
2014SR339 O C K 2017-05-03.39501 1.000E-05 20:46:49.680 1.500E-01 0.500 F 0.039 -0.083 +08° 30' 33.90" 1.000E-01 0.500 F 0.309 -0.001 o 691 0.17 Yes No
2013RF36 O C K 2017-05-03.43864 1.000E-05 22:12:42.150 1.500E-01 0.612 F -0.010 -0.413 +13° 55' 53.30" 1.000E-01 0.612 F 0.353 -0.214 20.8 R 0.70 0.48 o 691 0.76 Yes Yes
2014SZ303 O C 2017-05-03.44200 1.000E-05 22:11:00.650 1.500E-01 0.500 F -0.052 -0.263 +07° 39' 32.90" 1.000E-01 0.500 F 0.372 -0.264 20.2 V 0.70 0.38 o 691 0.77 Yes Yes
2013RF36 O C K 2017-05-03.44377 1.000E-05 22:12:42.990 1.500E-01 0.612 F -0.010 0.119 +13° 56' 00.50" 1.000E-01 0.612 F 0.353 -0.887 o 691 1.46 Yes No
2014SZ303 O C 2017-05-03.44713 1.000E-05 22:11:00.430 1.500E-01 0.500 F -0.052 -0.246 +07° 39' 23.90" 1.000E-01 0.500 F 0.372 0.019 20.1 V 0.70 0.28 o 691 0.50 Yes Yes
2013RF36 O C K 2017-05-03.44888 1.000E-05 22:12:43.810 1.500E-01 0.612 F -0.010 0.409 +13° 56' 09.00" 1.000E-01 0.612 F 0.353 -0.230 o 691 0.77 Yes No
2004VS60 O C K 2017-05-03.45315 1.000E-05 21:07:56.380 1.500E-01 0.500 F -0.048 0.060 -01° 04' 54.40" 1.000E-01 0.500 F 0.133 0.245 o 691 0.51 Yes No
2004VS60 O C K 2017-05-03.45769 1.000E-05 21:07:57.190 1.500E-01 0.500 F -0.048 -0.356 -01° 04' 45.50" 1.000E-01 0.500 F 0.133 -0.343 20.1 R 0.70 -0.51 o 691 0.99 Yes Yes
2004VS60 O C K 2017-05-03.46222 1.000E-05 21:07:58.050 1.500E-01 0.500 F -0.048 0.008 -01° 04' 35.80" 1.000E-01 0.500 F 0.133 -0.112 20.9 R 0.70 0.29 o 691 0.22 Yes Yes
2013RF36 O C K 2017-05-03.47435 1.000E-05 22:12:47.720 1.500E-01 0.612 F -0.010 -0.682 +13° 56' 47.90" 1.000E-01 0.612 F 0.353 -0.418 o 691 1.32 Yes No
2013RF36 O C K 2017-05-03.47725 1.000E-05 22:12:48.230 1.500E-01 0.612 F -0.010 0.142 +13° 56' 52.60" 1.000E-01 0.612 F 0.353 -0.169 o 691 0.36 Yes No
2013RF36 O C K 2017-05-03.48015 1.000E-05 22:12:48.680 1.500E-01 0.612 F -0.010 0.093 +13° 56' 57.20" 1.000E-01 0.612 F 0.353 -0.019 o 691 0.16 Yes No
2014JO25 O C H 2017-05-04.13569 1.000E-05 12:12:45.060 1.500E-01 0.500 F 0.183 -0.328 -13° 49' 47.00" 1.000E-01 0.500 F 0.057 0.136 16.6 R 0.70 0.04 o 691 0.71 Yes Yes
2000AF205 O C 2017-05-04.13824 1.000E-05 13:04:09.440 1.500E-01 0.500 F 0.221 -0.197 -06° 47' 26.20" 1.000E-01 0.500 F 0.121 -0.138 19.4 V 0.70 0.25 o 691 0.48 Yes Yes
2014JO25 O C H 2017-05-04.14335 1.000E-05 12:12:45.050 1.500E-01 0.500 F 0.183 -0.223 -13° 49' 51.60" 1.000E-01 0.500 F 0.057 0.113 16.6 R 0.70 0.04 o 691 0.50 Yes Yes
2000AF205 O C 2017-05-04.14587 1.000E-05 13:04:07.250 1.500E-01 0.500 F 0.221 -0.566 -06° 47' 06.40" 1.000E-01 0.500 F 0.121 0.365 19.2 V 0.70 0.05 o 691 1.36 Yes Yes
2014JO25 O C H 2017-05-04.15101 1.000E-05 12:12:45.040 1.500E-01 0.500 F 0.183 -0.101 -13° 49' 56.10" 1.000E-01 0.500 F 0.057 0.172 16.6 R 0.70 0.04 o 691 0.40 Yes Yes
2000AF205 O C 2017-05-04.15353 1.000E-05 13:04:05.110 1.500E-01 0.500 F 0.221 0.002 -06° 46' 47.30" 1.000E-01 0.500 F 0.121 0.078 19.0 V 0.70 -0.15 o 691 0.16 Yes Yes
2017HD49 O C K 2017-05-04.16108 1.000E-05 13:23:37.240 1.500E-01 0.500 F 0.351 -0.096 -00° 47' 17.00" 1.000E-01 0.500 F 0.141 -0.022 18.5 R 0.70 -1.49 o 691 0.20 Yes Yes
2017HD49 O C K 2017-05-04.17167 1.000E-05 13:23:38.140 1.500E-01 0.500 F 0.351 -0.495 -00° 46' 38.00" 1.000E-01 0.500 F 0.141 -0.123 18.7 R 0.70 -1.29 o 691 1.05 Yes Yes
2017HD49 O C K 2017-05-04.18227 1.000E-05 13:23:39.110 1.500E-01 0.500 F 0.351 0.189 -00° 45' 58.60" 1.000E-01 0.500 F 0.141 0.152 18.4 R 0.70 -1.59 o 691 0.50 Yes Yes
2017DC109 O C K 2017-05-04.20759 1.000E-05 13:21:42.640 1.500E-01 0.500 F 0.126 0.417 -14° 42' 24.60" 1.000E-01 0.500 F 0.030 0.230 18.6 R 0.70 -1.96 o 691 1.00 Yes No
2017DC109 O C K 2017-05-04.23388 1.000E-05 13:21:48.040 1.500E-01 0.500 F 0.126 -0.043 -14° 42' 20.20" 1.000E-01 0.500 F 0.030 -0.094 18.5 R 0.70 -2.06 o 691 0.22 Yes No
2017DC109 O C K 2017-05-04.26059 1.000E-05 13:21:53.560 1.500E-01 0.500 F 0.126 0.105 -14° 42' 15.00" 1.000E-01 0.500 F 0.030 0.038 o 691 0.24 Yes No
2011KR12 O C K 2017-05-04.28041 1.000E-05 14:11:50.760 1.500E-01 0.500 F 0.334 -0.324 -25° 25' 08.90" 1.000E-01 0.500 F 0.413 0.100 o 691 0.68 Yes No
2011KR12 O C K 2017-05-04.29367 1.000E-05 14:11:47.260 1.500E-01 0.500 F 0.334 -0.056 -25° 25' 07.20" 1.000E-01 0.500 F 0.413 0.089 o 691 0.21 Yes No
2011KR12 O C K 2017-05-04.30689 1.000E-05 14:11:43.720 1.500E-01 0.500 F 0.334 -0.480 -25° 25' 05.00" 1.000E-01 0.500 F 0.413 0.508 o 691 1.40 Yes No
2017HR49 O C K 2017-05-04.31699 1.000E-05 14:56:48.390 1.500E-01 0.500 F 0.133 -0.164 -03° 13' 03.20" 1.000E-01 0.500 F 0.093 0.257 o 691 0.61 Yes No
2017FK128 O C K 2017-05-04.32756 1.000E-05 14:57:56.020 1.500E-01 0.500 F 0.372 0.133 -11° 02' 35.50" 1.000E-01 0.500 F 0.202 -0.697 o 691 1.46 Yes No
2017HR49 O C K 2017-05-04.34383 1.000E-05 14:56:46.370 1.500E-01 0.500 F 0.133 -0.117 -03° 12' 55.10" 1.000E-01 0.500 F 0.093 0.259 o 691 0.57 Yes No
2017FK128 O C K 2017-05-04.35441 1.000E-05 14:57:55.400 1.500E-01 0.500 F 0.372 0.174 -11° 02' 12.20" 1.000E-01 0.500 F 0.202 0.374 21.4 R 0.70 0.38 o 691 0.85 Yes Yes
2017HR49 O C K 2017-05-04.37070 1.000E-05 14:56:44.340 1.500E-01 0.500 F 0.133 -0.209 -03° 12' 46.50" 1.000E-01 0.500 F 0.093 0.746 o 691 1.56 Yes No
2017FK128 O C K 2017-05-04.38127 1.000E-05 14:57:54.730 1.500E-01 0.500 F 0.372 -0.692 -11° 01' 50.10" 1.000E-01 0.500 F 0.202 0.132 21.2 R 0.70 0.18 o 691 1.45 Yes Yes
2017HN49 O C H 2017-05-04.40016 1.000E-05 15:54:08.780 1.500E-01 0.500 F 0.186 -0.025 -10° 56' 28.70" 1.000E-01 0.500 F 0.195 0.562 20.5 R 0.70 0.27 o 691 1.13 Yes Yes
2017HK49 O C K 2017-05-04.40336 1.000E-05 15:36:00.510 1.500E-01 0.500 F 0.287 -0.543 -09° 18' 03.80" 1.000E-01 0.500 F 0.084 -0.085 20.7 R 0.70 -0.39 o 691 1.10 Yes Yes
2017HN49 O C H 2017-05-04.41887 1.000E-05 15:54:08.890 1.500E-01 0.500 F 0.186 -0.210 -10° 56' 44.00" 1.000E-01 0.500 F 0.195 -0.014 21.0 R 0.70 0.77 o 691 0.42 Yes Yes
2017HK49 O C K 2017-05-04.42208 1.000E-05 15:36:01.680 1.500E-01 0.500 F 0.287 -0.072 -09° 17' 59.10" 1.000E-01 0.500 F 0.084 0.091 21.5 R 0.70 0.41 o 691 0.23 Yes Yes
2017HN49 O C H 2017-05-04.43735 1.000E-05 15:54:09.010 1.500E-01 0.500 F 0.186 -0.333 -10° 56' 59.00" 1.000E-01 0.500 F 0.195 -0.508 o 691 1.22 Yes No
2017HK49 O C K 2017-05-04.44055 1.000E-05 15:36:02.830 1.500E-01 0.500 F 0.287 0.140 -09° 17' 54.20" 1.000E-01 0.500 F 0.084 0.473 20.8 R 0.70 -0.29 o 691 0.99 Yes Yes
2017HP49 O C K 2017-05-04.45491 1.000E-05 16:37:52.360 1.500E-01 0.500 F 0.112 -0.721 +00° 08' 42.60" 1.000E-01 0.500 F 0.068 0.843 19.5 R 0.70 -0.55 o 691 2.23 Yes Yes
2017HP49 O C K 2017-05-04.46394 1.000E-05 16:37:54.420 1.500E-01 0.500 F 0.112 -1.031 +00° 08' 42.40" 1.000E-01 0.500 F 0.068 -0.378 20.5 R 0.70 0.46 o 691 2.21 Yes Yes
2017HP49 O C K 2017-05-04.47299 1.000E-05 16:37:56.600 1.500E-01 0.500 F 0.112 0.300 +00° 08' 43.50" 1.000E-01 0.500 F 0.068 -0.298 20.0 R 0.70 -0.04 o 691 0.85 Yes Yes
2017CS O C 2017-05-05.13314 1.000E-05 09:29:44.330 1.500E-01 0.500 F -0.013 0.102 -08° 28' 14.40" 1.000E-01 0.500 F 0.039 -0.255 18.2 V 0.70 0.29 o 691 0.55 Yes Yes
2017FP64 O C K 2017-05-05.13668 1.000E-05 09:33:08.900 1.500E-01 0.500 F 0.220 0.573 +18° 32' 25.30" 1.000E-01 0.500 F 0.339 -0.172 o 691 1.21 Yes No
2017CS O C 2017-05-05.14998 1.000E-05 09:29:44.750 1.500E-01 0.500 F -0.013 -0.336 -08° 27' 56.70" 1.000E-01 0.500 F 0.039 -0.043 18.2 V 0.70 0.29 o 691 0.68 Yes Yes
2017FP64 O C K 2017-05-05.15349 1.000E-05 09:33:12.760 1.500E-01 0.500 F 0.220 0.558 +18° 32' 31.50" 1.000E-01 0.500 F 0.339 -0.186 o 691 1.19 Yes No
2017CS O C 2017-05-05.16678 1.000E-05 09:29:45.230 1.500E-01 0.500 F -0.013 -0.146 -08° 27' 39.10" 1.000E-01 0.500 F 0.039 0.003 18.4 V 0.70 0.49 o 691 0.29 Yes Yes
2017FP64 O C K 2017-05-05.17027 1.000E-05 09:33:16.610 1.500E-01 0.500 F 0.220 0.449 +18° 32' 37.50" 1.000E-01 0.500 F 0.339 -0.346 o 691 1.15 Yes No
2014JO25 O C H 2017-05-05.18574 1.000E-05 12:12:54.660 1.500E-01 0.500 F 0.183 0.009 -13° 59' 22.30" 1.000E-01 0.500 F 0.057 0.156 16.8 R 0.70 0.05 o 691 0.31 Yes Yes
2000AF205 O C 2017-05-05.18834 1.000E-05 12:59:27.180 1.500E-01 0.500 F 0.230 -0.167 -06° 02' 21.20" 1.000E-01 0.500 F 0.183 0.155 19.9 V 0.70 0.72 o 691 0.46 Yes Yes
2014JO25 O C H 2017-05-05.20114 1.000E-05 12:12:54.660 1.500E-01 0.500 F 0.183 -0.133 -13° 59' 30.20" 1.000E-01 0.500 F 0.057 0.196 16.8 R 0.70 0.05 o 691 0.47 Yes Yes
2000AF205 O C 2017-05-05.20367 1.000E-05 12:59:22.750 1.500E-01 0.500 F 0.230 -0.043 -06° 01' 41.30" 1.000E-01 0.500 F 0.183 0.272 19.8 V 0.70 0.62 o 691 0.56 Yes Yes
2014JO25 O C H 2017-05-05.21640 1.000E-05 12:12:54.670 1.500E-01 0.500 F 0.183 -0.144 -13° 59' 38.00" 1.000E-01 0.500 F 0.057 0.196 16.8 R 0.70 0.05 o 691 0.49 Yes Yes
2000AF205 O C 2017-05-05.21886 1.000E-05 12:59:18.370 1.500E-01 0.500 F 0.230 0.311 -06° 01' 02.00" 1.000E-01 0.500 F 0.183 0.093 19.2 V 0.70 0.02 o 691 0.66 Yes Yes
2017HV4 O C K 2017-05-05.31350 1.000E-05 14:46:39.110 1.500E-01 0.500 F 0.318 0.718 -27° 28' 44.30" 1.000E-01 0.500 F 0.278 0.184 o 691 1.49 Yes No
2017HV4 O C K 2017-05-05.33845 1.000E-05 14:46:41.340 1.500E-01 0.500 F 0.318 0.291 -27° 29' 11.40" 1.000E-01 0.500 F 0.278 0.172 20.1 R 0.70 0.11 o 691 0.68 Yes Yes
2017HN49 O C 2017-05-05.39566 1.000E-05 15:54:23.560 1.500E-01 0.500 F 0.186 -0.565 -11° 10' 04.40" 1.000E-01 0.500 F 0.195 -0.375 20.9 V 0.70 0.35 o 691 1.36 Yes Yes
2017HN49 O C 2017-05-05.40366 1.000E-05 15:54:23.650 1.500E-01 0.500 F 0.186 0.164 -11° 10' 11.10" 1.000E-01 0.500 F 0.195 -0.406 20.4 V 0.70 -0.15 o 691 0.88 Yes Yes
2017HN49 O C 2017-05-05.41162 1.000E-05 15:54:23.670 1.500E-01 0.500 F 0.186 -0.152 -11° 10' 17.10" 1.000E-01 0.500 F 0.195 0.222 20.1 V 0.70 -0.45 o 691 0.54 Yes Yes
2017HP49 O C H 2017-05-05.42369 1.000E-05 16:42:01.140 1.500E-01 0.500 F 0.113 0.992 +00° 10' 18.00" 1.000E-01 0.500 F 0.063 -1.052 o 691 2.91 Yes No
2017HP49 O C H 2017-05-05.43500 1.000E-05 16:42:03.900 1.500E-01 0.500 F 0.086 0.824 +00° 10' 20.00" 1.000E-01 0.500 F 0.109 -0.089 20.3 R 0.70 0.34 o 691 1.67 Yes Yes
2017HP49 O C H 2017-05-05.44625 1.000E-05 16:42:06.620 1.500E-01 0.500 F 0.086 0.144 +00° 10' 21.50" 1.000E-01 0.500 F 0.109 0.430 20.3 R 0.70 0.34 o 691 0.91 Yes Yes
2017HG2 O C K 2017-05-06.39507 1.000E-05 16:16:23.720 1.500E-01 0.500 F 0.166 0.268 +08° 10' 08.80" 1.000E-01 0.500 F 0.143 0.498 o 691 1.16 Yes No
2017HG2 O C K 2017-05-06.42281 1.000E-05 16:16:21.400 1.500E-01 0.500 F 0.166 -0.405 +08° 10' 13.20" 1.000E-01 0.500 F 0.143 0.100 o 691 0.84 Yes No
2017FE1 O C H 2017-05-16.17369 1.000E-05 09:20:36.070 1.500E-01 0.500 F 0.138 0.718 +19° 59' 24.80" 1.000E-01 0.500 F 0.221 0.630 20.4 R 0.70 0.86 o 691 1.92 Yes Yes
2017FE1 O C H 2017-05-16.19989 1.000E-05 09:20:32.330 1.500E-01 0.500 F 0.138 1.073 +19° 59' 15.40" 1.000E-01 0.500 F 0.221 -1.339 20.1 R 0.70 0.56 o 691 3.42 No Yes
2006JF42 O C H 2017-05-16.21749 1.000E-05 09:28:47.310 1.500E-01 0.500 F 0.128 -0.230 +13° 25' 01.80" 1.000E-01 0.500 F 0.253 -0.217 19.1 R 0.70 0.79 o 691 0.64 Yes Yes
2006JF42 O C H 2017-05-16.22137 1.000E-05 09:28:48.780 1.500E-01 0.500 F 0.128 -0.808 +13° 24' 50.00" 1.000E-01 0.500 F 0.253 -0.156 19.5 R 0.70 1.19 o 691 1.68 Yes Yes
2006JF42 O C H 2017-05-16.22525 1.000E-05 09:28:50.360 1.500E-01 0.500 F 0.128 0.207 +13° 24' 37.90" 1.000E-01 0.500 F 0.253 -0.394 19.9 R 0.70 1.59 o 691 0.92 Yes Yes
2014NA64 O C K 2017-05-16.23139 1.000E-05 11:32:01.520 1.500E-01 0.500 F 0.163 0.556 -14° 11' 31.90" 1.000E-01 0.500 F 0.000 -0.832 o 691 2.02 Yes No
2017HX3 O C K 2017-05-16.23824 1.000E-05 12:43:14.530 1.500E-01 0.500 F 0.109 0.701 +16° 48' 19.10" 1.000E-01 0.500 F 0.253 -0.139 o 691 1.46 Yes No
2001HZ7 O C 2017-05-16.24443 1.000E-05 12:46:25.880 1.500E-01 0.500 F 0.171 -0.709 +10° 40' 55.20" 1.000E-01 0.500 F 0.316 0.220 20.3 V 0.70 -0.07 o 691 1.49 Yes Yes
2014NA64 O C K 2017-05-16.24751 1.000E-05 11:32:01.400 1.500E-01 0.500 F 0.163 0.165 -14° 11' 26.10" 1.000E-01 0.500 F 0.000 -0.311 o 691 0.71 Yes No
2017HX3 O C K 2017-05-16.25433 1.000E-05 12:43:10.980 1.500E-01 0.500 F 0.109 0.051 +16° 48' 04.70" 1.000E-01 0.500 F 0.253 0.748 o 691 1.53 Yes No
2001HZ7 O C 2017-05-16.26052 1.000E-05 12:46:27.200 1.500E-01 0.500 F 0.171 -0.483 +10° 40' 32.60" 1.000E-01 0.500 F 0.316 -0.123 20.8 V 0.70 0.43 o 691 1.00 Yes Yes
2014NA64 O C K 2017-05-16.26361 1.000E-05 11:32:01.290 1.500E-01 0.500 F 0.163 -0.155 -14° 11' 20.50" 1.000E-01 0.500 F 0.000 0.000 o 691 0.31 Yes No
2017HX3 O C K 2017-05-16.27042 1.000E-05 12:43:07.460 1.500E-01 0.500 F 0.109 -0.276 +16° 47' 48.30" 1.000E-01 0.500 F 0.253 -0.281 o 691 0.80 Yes No
2001HZ7 O C 2017-05-16.27659 1.000E-05 12:46:28.530 1.500E-01 0.500 F 0.171 -0.150 +10° 40' 11.10" 1.000E-01 0.500 F 0.316 0.626 20.4 V 0.70 0.03 o 691 1.29 Yes Yes
2014JO25 O C H 2017-05-16.28163 1.000E-05 12:16:54.320 1.500E-01 0.500 F 0.243 -0.165 -15° 01' 30.10" 1.000E-01 0.500 F -0.009 0.213 18.2 R 0.70 -0.07 o 691 0.54 Yes Yes
2011KR12 O C H 2017-05-16.28438 1.000E-05 13:21:39.670 1.500E-01 0.500 F 0.427 0.145 -24° 10' 32.80" 1.000E-01 0.500 F 0.232 0.223 20.2 R 0.70 -0.17 o 691 0.53 Yes Yes
2014JO25 O C H 2017-05-16.29032 1.000E-05 12:16:54.550 1.500E-01 0.500 F 0.243 -0.019 -15° 01' 32.10" 1.000E-01 0.500 F -0.009 0.180 18.2 R 0.70 -0.07 o 691 0.36 Yes Yes
2011KR12 O C H 2017-05-16.29301 1.000E-05 13:21:37.570 1.500E-01 0.500 F 0.427 0.099 -24° 10' 26.80" 1.000E-01 0.500 F 0.232 1.044 20.3 R 0.70 -0.07 o 691 2.10 Yes Yes
2014JO25 O C H 2017-05-16.29894 1.000E-05 12:16:54.770 1.500E-01 0.500 F 0.243 -0.021 -15° 01' 34.10" 1.000E-01 0.500 F -0.009 0.122 18.3 R 0.70 0.03 o 691 0.25 Yes Yes
2012EY11 O C K 2017-05-16.30535 1.000E-05 12:55:57.830 1.500E-01 0.500 F 0.135 0.621 +18° 27' 10.30" 1.000E-01 0.500 F 0.193 0.219 21.5 R 0.70 -0.16 o 691 1.33 Yes Yes
2012EY11 O C K 2017-05-16.31993 1.000E-05 12:55:57.640 1.500E-01 0.500 F 0.135 0.806 +18° 27' 05.10" 1.000E-01 0.500 F 0.193 -0.616 o 691 2.04 Yes No
2012EY11 O C K 2017-05-16.33452 1.000E-05 12:55:57.410 1.500E-01 0.500 F 0.135 0.314 +18° 27' 01.50" 1.000E-01 0.500 F 0.193 0.192 o 691 0.74 Yes No
2016WO1 O C H 2017-05-16.35286 1.000E-05 15:26:48.020 1.500E-01 0.500 F 0.168 0.143 -12° 36' 31.50" 1.000E-01 0.500 F 0.035 0.108 18.8 R 0.70 0.19 o 691 0.36 Yes Yes
2016WO1 O C H 2017-05-16.35446 1.000E-05 15:26:47.810 1.500E-01 0.500 F 0.168 0.126 -12° 36' 34.50" 1.000E-01 0.500 F 0.035 0.265 18.8 R 0.70 0.19 o 691 0.59 Yes Yes
2016WO1 O C H 2017-05-16.35606 1.000E-05 15:26:47.610 1.500E-01 0.500 F 0.168 0.256 -12° 36' 37.90" 1.000E-01 0.500 F 0.035 0.022 18.9 R 0.70 0.29 o 691 0.52 Yes Yes
2014JG78 O C K 2017-05-16.36803 1.000E-05 16:33:20.280 1.500E-01 0.500 F 0.124 0.131 +18° 50' 27.90" 1.000E-01 0.500 F 0.198 -0.966 o 691 1.95 Yes No
2014JG78 O C K 2017-05-16.37790 1.000E-05 16:33:19.140 1.500E-01 0.500 F 0.124 -0.236 +18° 50' 49.00" 1.000E-01 0.500 F 0.198 0.010 o 691 0.47 Yes No
2014JG78 O C K 2017-05-16.39800 1.000E-05 16:33:16.840 1.500E-01 0.500 F 0.124 -0.685 +18° 51' 30.00" 1.000E-01 0.500 F 0.198 0.073 19.1 R 0.70 -1.35 o 691 1.38 Yes Yes
2014JG78 O C K 2017-05-16.40956 1.000E-05 16:33:15.550 1.500E-01 0.500 F 0.124 -0.491 +18° 51' 53.20" 1.000E-01 0.500 F 0.198 -0.244 19.4 R 0.70 -1.05 o 691 1.10 Yes Yes
2006JF42 O C H 2017-05-17.14806 1.000E-05 09:34:46.310 1.500E-01 0.500 F 0.095 -0.685 +12° 39' 23.30" 1.000E-01 0.500 F 0.234 0.496 19.4 R 0.70 1.06 o 691 1.75 Yes Yes
2017FP64 O C 2017-05-17.14940 1.000E-05 10:20:23.240 1.500E-01 0.500 F 0.135 -0.527 +19° 05' 05.40" 1.000E-01 0.500 F 0.293 -0.196 20.5 V 0.70 0.05 o 691 1.14 Yes Yes
2015PQ291 O C H 2017-05-17.15143 1.000E-05 09:02:32.630 1.500E-01 0.500 F 0.106 -0.338 -17° 18' 21.80" 1.000E-01 0.500 F -0.151 -0.501 o 691 1.21 Yes No
2006JF42 O C H 2017-05-17.15312 1.000E-05 09:34:48.200 1.500E-01 0.500 F 0.095 0.266 +12° 39' 07.70" 1.000E-01 0.500 F 0.234 -0.393 o 691 0.98 Yes No
2017FP64 O C 2017-05-17.15448 1.000E-05 10:20:24.370 1.500E-01 0.500 F 0.135 -1.200 +19° 05' 05.80" 1.000E-01 0.500 F 0.293 0.479 21.3 V 0.70 0.85 o 691 2.63 Yes Yes
2015PQ291 O C H 2017-05-17.15644 1.000E-05 09:02:34.360 1.500E-01 0.500 F 0.106 0.085 -17° 18' 09.20" 1.000E-01 0.500 F -0.151 0.095 18.2 R 0.70 -0.27 o 691 0.26 Yes Yes
2006JF42 O C H 2017-05-17.15813 1.000E-05 09:34:49.970 1.500E-01 0.500 F 0.095 -0.286 +12° 38' 53.50" 1.000E-01 0.500 F 0.234 -0.024 19.6 R 0.70 1.26 o 691 0.59 Yes Yes
2017FP64 O C 2017-05-17.15948 1.000E-05 10:20:25.500 1.500E-01 0.500 F 0.135 -1.615 +19° 05' 05.10" 1.000E-01 0.500 F 0.293 0.053 20.8 V 0.70 0.35 o 691 3.18 No Yes
2015PQ291 O C H 2017-05-17.16145 1.000E-05 09:02:36.070 1.500E-01 0.500 F 0.106 0.212 -17° 17' 56.80" 1.000E-01 0.500 F -0.151 0.489 18.9 R 0.70 0.43 o 691 1.08 Yes Yes
2017BL6 O C K 2017-05-17.16306 1.000E-05 09:37:27.770 1.500E-01 0.500 F 0.108 -0.732 -13° 06' 15.50" 1.000E-01 0.500 F 0.122 0.979 20.5 R 0.70 0.15 o 691 2.47 Yes Yes
2017BL6 O C K 2017-05-17.16778 1.000E-05 09:37:29.290 1.500E-01 0.500 F 0.108 0.359 -13° 06' 18.00" 1.000E-01 0.500 F 0.122 -0.458 20.5 R 0.70 0.15 o 691 1.18 Yes Yes
2017BL6 O C K 2017-05-17.17251 1.000E-05 09:37:30.700 1.500E-01 0.500 F 0.108 -0.221 -13° 06' 18.80" 1.000E-01 0.500 F 0.122 -0.198 20.0 R 0.70 -0.35 o 691 0.60 Yes Yes
2016VY5 O C K 2017-05-17.17737 1.000E-05 10:27:40.400 1.500E-01 0.500 F 0.385 0.298 -25° 02' 48.60" 1.000E-01 0.500 F 0.097 0.359 o 691 0.94 Yes No
2016VY5 O C K 2017-05-17.18362 1.000E-05 10:27:41.680 1.500E-01 0.500 F 0.385 0.527 -25° 02' 43.60" 1.000E-01 0.500 F 0.097 -0.515 o 691 1.51 Yes No
2017HT2 O C K 2017-05-17.20788 1.000E-05 12:34:28.560 1.500E-01 0.500 F 0.149 -0.064 +20° 46' 06.30" 1.000E-01 0.500 F 0.215 -0.221 o 691 0.46 Yes No
2001HZ7 O C H 2017-05-17.21462 1.000E-05 12:47:50.360 1.500E-01 0.500 F 0.171 -0.227 +10° 18' 53.80" 1.000E-01 0.500 F 0.316 -0.127 20.3 R 0.70 0.27 o 691 0.52 Yes Yes
2017HT2 O C K 2017-05-17.22442 1.000E-05 12:34:27.830 1.500E-01 0.500 F 0.149 0.049 +20° 46' 02.80" 1.000E-01 0.500 F 0.215 -0.125 21.9 R 0.70 0.63 o 691 0.27 Yes Yes
2001HZ7 O C H 2017-05-17.23102 1.000E-05 12:47:51.680 1.500E-01 0.500 F 0.171 -0.031 +10° 18' 31.70" 1.000E-01 0.500 F 0.316 -0.082 20.3 R 0.70 0.27 o 691 0.18 Yes Yes
2017HT2 O C K 2017-05-17.24082 1.000E-05 12:34:27.060 1.500E-01 0.500 F 0.149 -0.512 +20° 45' 59.40" 1.000E-01 0.500 F 0.215 0.067 21.9 R 0.70 0.63 o 691 1.04 Yes Yes
2001HZ7 O C H 2017-05-17.24743 1.000E-05 12:47:52.990 1.500E-01 0.500 F 0.171 -0.032 +10° 18' 09.30" 1.000E-01 0.500 F 0.316 -0.303 19.7 R 0.70 -0.33 o 691 0.61 Yes Yes
2009CB3 O C K 2017-05-17.26916 1.000E-05 14:07:08.930 1.500E-01 0.500 F 0.195 -1.416 +29° 00' 48.40" 1.000E-01 0.500 F 0.165 -0.201 o 691 2.88 Yes No
2009CB3 O C K 2017-05-17.28021 1.000E-05 14:07:07.210 1.500E-01 0.500 F 0.195 -0.839 +29° 00' 52.10" 1.000E-01 0.500 F 0.165 -0.238 o 691 1.76 Yes No
2017KA3 O C H 2017-05-17.28737 1.000E-05 13:23:24.650 1.500E-01 0.500 F 0.204 -0.184 +16° 23' 26.90" 1.000E-01 0.500 F 0.217 0.079 o 691 0.41 Yes No
2017KA3 O C H 2017-05-17.30016 1.000E-05 13:23:26.620 1.500E-01 0.500 F 0.204 -0.067 +16° 22' 42.60" 1.000E-01 0.500 F 0.217 -0.374 o 691 0.77 Yes No
2008SQ7 O C K 2017-05-17.35778 1.000E-05 17:18:33.470 1.500E-01 0.500 F 0.065 -0.561 +10° 41' 28.20" 1.000E-01 0.500 F 0.163 0.238 o 691 1.23 Yes No
2008SQ7 O C K 2017-05-17.36809 1.000E-05 17:18:32.500 1.500E-01 0.500 F 0.065 -0.392 +10° 41' 38.30" 1.000E-01 0.500 F 0.163 0.798 20.3 R 0.70 -0.65 o 691 1.79 Yes Yes
2017HA49 O C H 2017-05-17.42383 1.000E-05 16:32:00.530 1.500E-01 0.500 F 0.064 -0.035 +00° 48' 42.20" 1.000E-01 0.500 F 0.149 -0.404 21.4 R 0.70 -0.08 o 691 0.85 Yes Yes
2017HA49 O C H 2017-05-17.43843 1.000E-05 16:32:00.200 1.500E-01 0.500 F 0.064 -0.127 +00° 48' 49.60" 1.000E-01 0.500 F 0.149 -0.257 o 691 0.60 Yes No
2017HA49 O C H 2017-05-17.46031 1.000E-05 16:31:59.730 1.500E-01 0.500 F 0.064 -0.048 +00° 49' 00.90" 1.000E-01 0.500 F 0.149 0.193 o 691 0.42 Yes No
2017KE3 O C H 2017-05-18.39415 1.000E-05 15:25:28.180 1.500E-01 0.500 F 0.047 0.084 -04° 45' 08.40" 1.000E-01 0.500 F 0.317 0.113 20.4 R 0.70 0.09 o 691 0.28 Yes Yes
2017KE3 O C H 2017-05-18.40106 1.000E-05 15:25:27.680 1.500E-01 0.500 F 0.047 -0.097 -04° 45' 04.90" 1.000E-01 0.500 F 0.317 -0.015 20.3 R 0.70 -0.01 o 691 0.20 Yes Yes
2017HW48 O C 2017-05-18.45852 1.000E-05 16:55:51.000 1.500E-01 0.500 F 0.022 -0.150 -09° 33' 54.10" 1.000E-01 0.500 F 0.125 0.006 19.6 V 0.70 0.11 o 691 0.30 Yes Yes
2017HW48 O C 2017-05-18.46424 1.000E-05 16:55:51.270 1.500E-01 0.500 F 0.022 -0.624 -09° 33' 54.40" 1.000E-01 0.500 F 0.125 0.102 19.6 V 0.70 0.11 o 691 1.27 Yes Yes
2017HW48 O C 2017-05-18.46996 1.000E-05 16:55:51.620 1.500E-01 0.500 F 0.022 0.070 -09° 33' 54.90" 1.000E-01 0.500 F 0.125 -0.003 19.8 V 0.70 0.31 o 691 0.14 Yes Yes
2017KO4 O C H 2017-05-19.16072 1.000E-05 14:09:49.760 1.500E-01 0.500 F 0.132 -0.372 -19° 57' 50.90" 1.000E-01 0.500 F 0.032 -0.465 20.5 R 0.70 0.37 o 691 1.20 Yes Yes
2001HZ7 O C H 2017-05-19.16342 1.000E-05 12:50:36.630 1.500E-01 0.500 F 0.232 -0.230 +09° 36' 02.80" 1.000E-01 0.500 F 0.301 -0.142 19.7 R 0.70 -0.45 o 691 0.54 Yes Yes
2017KO4 O C H 2017-05-19.17576 1.000E-05 14:09:48.390 1.500E-01 0.500 F 0.132 0.340 -19° 57' 53.20" 1.000E-01 0.500 F 0.032 0.383 20.4 R 0.70 0.27 o 691 1.03 Yes Yes
2001HZ7 O C H 2017-05-19.17844 1.000E-05 12:50:37.800 1.500E-01 0.500 F 0.232 -0.206 +09° 35' 43.40" 1.000E-01 0.500 F 0.301 -0.156 20.5 R 0.70 0.35 o 691 0.52 Yes Yes
2017KO4 O C H 2017-05-19.19080 1.000E-05 14:09:46.920 1.500E-01 0.500 F 0.132 -0.332 -19° 57' 56.50" 1.000E-01 0.500 F 0.032 0.209 o 691 0.79 Yes No
2001HZ7 O C H 2017-05-19.19355 1.000E-05 12:50:39.000 1.500E-01 0.500 F 0.162 0.238 +09° 35' 23.80" 1.000E-01 0.500 F 0.247 -0.184 20.6 R 0.70 0.44 o 691 0.60 Yes Yes
2006JF42 O C H 2017-05-19.20101 1.000E-05 09:46:43.710 1.500E-01 0.500 F 0.184 0.921 +11° 05' 32.70" 1.000E-01 0.500 F 0.212 -0.515 19.8 R 0.70 1.39 o 691 2.17 Yes Yes
2006JF42 O C H 2017-05-19.21725 1.000E-05 09:46:48.840 1.500E-01 0.500 F 0.184 0.163 +11° 04' 49.90" 1.000E-01 0.500 F 0.212 -0.488 20.2 R 0.70 1.79 o 691 1.05 Yes Yes
2006JF42 O C H 2017-05-19.23333 1.000E-05 09:46:53.960 1.500E-01 0.500 F 0.184 -0.197 +11° 04' 07.80" 1.000E-01 0.500 F 0.212 -0.182 19.3 R 0.70 0.89 o 691 0.54 Yes Yes
2017KN4 O C K 2017-05-19.25402 1.000E-05 14:16:06.960 1.500E-01 0.500 F 0.315 0.100 +05° 48' 30.00" 1.000E-01 0.500 F 0.250 -0.471 20.4 R 0.70 -0.35 o 691 0.97 Yes Yes
2017KN4 O C K 2017-05-19.26777 1.000E-05 14:16:05.410 1.500E-01 0.500 F 0.315 -0.034 +05° 48' 31.00" 1.000E-01 0.500 F 0.250 0.144 20.5 R 0.70 -0.25 o 691 0.30 Yes Yes
2017KN4 O C K 2017-05-19.28174 1.000E-05 14:16:03.850 1.500E-01 0.500 F 0.315 0.034 +05° 48' 31.50" 1.000E-01 0.500 F 0.250 0.270 20.5 R 0.70 -0.25 o 691 0.55 Yes Yes
2017KE3 O C H 2017-05-19.29245 1.000E-05 15:24:27.540 1.500E-01 0.500 F 0.047 0.364 -04° 37' 23.10" 1.000E-01 0.500 F 0.317 -0.086 20.7 R 0.70 0.39 o 691 0.75 Yes Yes
2017KE3 O C H 2017-05-19.30041 1.000E-05 15:24:26.940 1.500E-01 0.500 F 0.047 -0.074 -04° 37' 19.00" 1.000E-01 0.500 F 0.317 -0.080 20.5 R 0.70 0.19 o 691 0.22 Yes Yes
2017KE3 O C H 2017-05-19.30841 1.000E-05 15:24:26.390 1.500E-01 0.500 F 0.047 0.277 -04° 37' 14.90" 1.000E-01 0.500 F 0.317 -0.097 20.5 R 0.70 0.19 o 691 0.59 Yes Yes
2017KP4 O C K 2017-05-19.31053 1.000E-05 15:41:40.130 1.500E-01 0.500 F 0.162 -0.155 -10° 50' 09.80" 1.000E-01 0.500 F 0.205 0.529 o 691 1.11 Yes No
2017KP4 O C K 2017-05-19.32103 1.000E-05 15:41:38.710 1.500E-01 0.500 F 0.162 -0.366 -10° 49' 48.70" 1.000E-01 0.500 F 0.205 0.344 o 691 1.01 Yes No
2017KP4 O C K 2017-05-19.33153 1.000E-05 15:41:37.310 1.500E-01 0.500 F 0.162 -0.281 -10° 49' 27.60" 1.000E-01 0.500 F 0.205 0.140 o 691 0.63 Yes No
2006JF42 O C 2017-05-20.18778 1.000E-05 09:51:57.420 1.500E-01 0.500 F 0.188 -0.274 +10° 23' 43.00" 1.000E-01 0.500 F 0.126 0.067 18.5 V 0.70 -0.35 o 691 0.58 Yes Yes
2017KO4 O C H 2017-05-20.19153 1.000E-05 14:08:15.920 1.500E-01 0.500 F 0.132 -0.209 -20° 01' 18.40" 1.000E-01 0.500 F 0.032 0.009 20.8 R 0.70 0.66 o 691 0.42 Yes Yes
2006JF42 O C 2017-05-20.19793 1.000E-05 09:52:00.450 1.500E-01 0.500 F 0.188 -0.375 +10° 23' 17.60" 1.000E-01 0.500 F 0.126 0.139 18.5 V 0.70 -0.35 o 691 0.82 Yes Yes
2017KO4 O C H 2017-05-20.20165 1.000E-05 14:08:14.980 1.500E-01 0.500 F 0.132 -0.080 -20° 01' 20.40" 1.000E-01 0.500 F 0.032 0.089 20.3 R 0.70 0.16 o 691 0.24 Yes Yes
2006JF42 O C 2017-05-20.20798 1.000E-05 09:52:03.480 1.500E-01 0.500 F 0.188 -0.105 +10° 22' 52.40" 1.000E-01 0.500 F 0.126 0.163 18.5 V 0.70 -0.35 o 691 0.40 Yes Yes
2017KO4 O C H 2017-05-20.21176 1.000E-05 14:08:14.000 1.500E-01 0.500 F 0.132 -0.523 -20° 01' 23.30" 1.000E-01 0.500 F 0.032 -0.744 20.4 R 0.70 0.26 o 691 1.83 Yes Yes
2017KN4 O C K 2017-05-20.22075 1.000E-05 14:14:25.090 1.500E-01 0.500 F 0.293 0.340 +05° 48' 42.50" 1.000E-01 0.500 F 0.236 -0.023 o 691 0.68 Yes No
2017KJ3 O C K 2017-05-20.22383 1.000E-05 14:37:05.930 1.500E-01 0.500 F 0.148 -2.688 +02° 42' 11.80" 1.000E-01 0.500 F 0.187 -2.355 20.4 R 0.70 0.09 o 691 7.11 No Yes
2017KN4 O C K 2017-05-20.23216 1.000E-05 14:14:23.820 1.500E-01 0.500 F 0.293 0.334 +05° 48' 42.40" 1.000E-01 0.500 F 0.236 -0.086 20.7 R 0.70 -0.05 o 691 0.69 Yes Yes
2017KJ3 O C K 2017-05-20.23522 1.000E-05 14:37:03.120 1.500E-01 0.500 F 0.148 0.027 +02° 41' 47.90" 1.000E-01 0.500 F 0.187 -0.158 19.8 R 0.70 -0.51 o 691 0.32 Yes Yes
2017KJ3 O C K 2017-05-20.24662 1.000E-05 14:37:00.070 1.500E-01 0.500 F 0.148 -0.695 +02° 41' 21.70" 1.000E-01 0.500 F 0.187 -0.173 19.7 R 0.70 -0.60 o 691 1.44 Yes Yes
2017KE3 O C 2017-05-20.28380 1.000E-05 15:23:19.860 1.500E-01 0.500 F 0.023 -0.201 -04° 28' 58.30" 1.000E-01 0.500 F 0.252 -0.322 20.7 V 0.70 -0.01 o 691 0.76 Yes Yes
2017KE3 O C 2017-05-20.29300 1.000E-05 15:23:19.210 1.500E-01 0.500 F 0.023 -0.011 -04° 28' 53.40" 1.000E-01 0.500 F 0.252 -0.064 20.8 V 0.70 0.09 o 691 0.13 Yes Yes
2017KE3 O C 2017-05-20.30220 1.000E-05 15:23:18.550 1.500E-01 0.500 F 0.023 0.029 -04° 28' 48.80" 1.000E-01 0.500 F 0.252 -0.108 21.0 V 0.70 0.29 o 691 0.22 Yes Yes
2017FP64 O C K 2017-05-21.15416 1.000E-05 10:36:03.330 1.500E-01 0.500 F 0.032 0.029 +18° 57' 34.40" 1.000E-01 0.500 F 0.323 0.304 o 691 0.62 Yes No

[1-200] [201-400] [401-600] [601-800] [801-1000] [1001-1200] [1201-1400] [1401-1600] [1601-1800] [1801-2000] [2001-2200] [2201-2400] [2401-2600] [2601-2800] [2801-3000] [3001-3200] [3201-3400] [3401-3600] [3601-3800] [3801-4000] [4001-4200] [4201-4400] [4401-4600] [4601-4800] [4801-5000] [5001-5200] [5201-5400] [5401-5600] [5601-5800] [5801-6000] [6001-6200] [6201-6400] [6401-6600] [6601-6800] [6801-7000] [7001-7200] [7201-7400] [7401-7600] [7601-7800] [7801-8000] [8001-8200] [8201-8400] [8401-8600] [8601-8800] [8801-9000] [9001-9200] [9201-9400] [9401-9600] [9601-9800] [9801-10000] [10001-10200] [10201-10400] [10401-10600] [10601-10800] [10801-11000] [11001-11200] [11201-11400] [11401-11600] [11601-11800] [11801-12000] [12001-12200] [12201-12400] [12401-12600] [12601-12800] [12801-13000] [13001-13200] [13201-13400] [13401-13600] [13601-13800] [13801-14000] [14001-14200] [14201-14400] [14401-14600] [14601-14800] [14801-15000] [15001-15200] [15201-15400] [15401-15600] [15601-15800] [15801-16000] [16001-16200] [16201-16400] [16401-16600] [16601-16800] [16801-17000] [17001-17200] [17201-17400] [17401-17600] [17601-17800] [17801-18000] [18001-18200] [18201-18400] [18401-18600] [18601-18800] [18801-19000] [19001-19200] [19201-19400] [19401-19600] [19601-19800] [19801-20000] [20001-20200] [20201-20400] [20401-20600] [20601-20800] [20801-21000] [21001-21200] [21201-21400] [21401-21600] [21601-21800] [21801-22000] [22001-22200] [22201-22400] [22401-22600] [22601-22800] [22801-23000] [23001-23200] [23201-23400] [23401-23600] [23601-23800] [23801-24000] [24001-24200] [24201-24400] [24401-24600] [24601-24800] [24801-25000] [25001-25200] [25201-25400] [25401-25600] [25601-25800] [25801-26000] [26001-26200] [26201-26400] [26401-26600] [26601-26800] [26801-27000] [27001-27200] [27201-27400] [27401-27600] [27601-27800] [27801-28000] [28001-28200] [28201-28400] [28401-28600] [28601-28800] [28801-29000] [29001-29200] [29201-29400] [29401-29600] [29601-29800] [29801-30000] [30001-30200] [30201-30400] [30401-30600] [30601-30800] [30801-31000] [31001-31200] [31201-31400] [31401-31600] [31601-31800] [31801-32000] [32001-32200] [32201-32400] [32401-32600] [32601-32800] [32801-33000] [33001-33200] [33201-33400] [33401-33600] [33601-33800] [33801-34000] [34001-34200] [34201-34400] [34401-34600] [34601-34800] [34801-35000] [35001-35200] [35201-35400] [35401-35600] [35601-35800] [35801-36000] [36001-36200] [36201-36400] [36401-36600] [36601-36800] [36801-37000] [37001-37200] [37201-37400] [37401-37600] [37601-37800] [37801-38000] [38001-38200] [38201-38400] [38401-38600] [38601-38800] [38801-39000] [39001-39200] [39201-39400] [39401-39600] [39601-39800] [39801-40000] [40001-40200] [40201-40400] [40401-40600] [40601-40800] [40801-41000] [41001-41200] [41201-41400] [41401-41600] [41601-41800] [41801-42000] [42001-42200] [42201-42400] [42401-42600] [42601-42800] [42801-43000] [43001-43200] [43201-43400] [43401-43600] [43601-43800] [43801-44000] [44001-44200] [44201-44400] [44401-44600] [44601-44800] [44801-45000] [45001-45200] [45201-45400] [45401-45600] [45601-45800] [45801-46000] [46001-46200] [46201-46400] [46401-46600] [46601-46800] [46801-47000] [47001-47200] [47201-47400] [47401-47600] [47601-47800] [47801-48000] [48001-48200] [48201-48400] [48401-48600] [48601-48800] [48801-49000] [49001-49200] [49201-49400] [49401-49600] [49601-49800] [49801-50000] [50001-50200] [50201-50388]